createdAt,value
2018-08-06T00:01:33.344Z,21.90
2018-08-06T00:06:36.405Z,21.80
2018-08-06T00:11:39.428Z,21.72
2018-08-06T00:16:42.498Z,21.59
2018-08-06T00:21:45.501Z,21.47
2018-08-06T00:26:48.491Z,21.39
2018-08-06T00:31:51.685Z,21.40
2018-08-06T00:36:54.706Z,21.43
2018-08-06T00:41:57.742Z,21.32
2018-08-06T00:47:00.737Z,21.23
2018-08-06T00:52:03.865Z,21.11
2018-08-06T00:57:06.901Z,21.04
2018-08-06T01:02:09.932Z,20.94
2018-08-06T01:07:12.985Z,20.88
2018-08-06T01:12:16.108Z,20.84
2018-08-06T01:17:19.142Z,20.75
2018-08-06T01:22:22.199Z,20.69
2018-08-06T01:27:25.199Z,20.66
2018-08-06T01:32:28.193Z,20.65
2018-08-06T01:37:31.233Z,20.56
2018-08-06T01:42:34.269Z,20.39
2018-08-06T01:47:37.809Z,20.14
2018-08-06T01:52:41.448Z,19.96
2018-08-06T01:57:44.430Z,20.07
2018-08-06T02:02:47.446Z,20.10
2018-08-06T02:07:50.480Z,20.13
2018-08-06T02:12:56.433Z,20.14
2018-08-06T02:17:59.452Z,20.15
2018-08-06T02:23:02.493Z,20.05
2018-08-06T02:28:05.630Z,19.99
2018-08-06T02:33:08.671Z,19.97
2018-08-06T02:38:11.693Z,19.79
2018-08-06T02:43:14.784Z,19.77
2018-08-06T02:48:17.816Z,19.71
2018-08-06T02:53:20.902Z,19.63
2018-08-06T02:58:23.936Z,19.69
2018-08-06T03:03:27.327Z,19.69
2018-08-06T03:08:30.721Z,19.63
2018-08-06T03:13:34.050Z,19.49
2018-08-06T03:18:37.416Z,19.57
2018-08-06T03:23:40.888Z,19.58
2018-08-06T03:28:44.279Z,19.52
2018-08-06T03:33:47.524Z,19.50
2018-08-06T03:38:50.867Z,19.48
2018-08-06T03:43:54.303Z,19.39
2018-08-06T03:48:57.779Z,19.30
2018-08-06T03:54:01.195Z,19.27
2018-08-06T03:59:04.584Z,19.31
2018-08-06T04:04:07.974Z,19.20
2018-08-06T04:09:11.325Z,19.26
2018-08-06T04:14:14.652Z,19.34
2018-08-06T04:19:18.020Z,19.44
2018-08-06T04:24:21.331Z,19.42
2018-08-06T04:29:25.082Z,19.46
2018-08-06T04:34:28.463Z,19.45
2018-08-06T04:39:31.800Z,19.53
2018-08-06T04:44:35.129Z,19.64
2018-08-06T04:49:38.489Z,19.76
2018-08-06T04:54:41.861Z,19.87
2018-08-06T04:59:45.331Z,20.01
2018-08-06T05:04:48.701Z,20.12
2018-08-06T05:09:52.638Z,20.20
2018-08-06T05:14:56.041Z,20.40
2018-08-06T05:19:59.374Z,20.58
2018-08-06T05:25:02.862Z,20.66
2018-08-06T05:30:09.206Z,20.48
2018-08-06T05:35:14.211Z,20.62
2018-08-06T05:40:18.301Z,20.79
2018-08-06T05:45:23.899Z,21.07
2018-08-06T05:50:27.508Z,21.19
2018-08-06T05:55:30.916Z,21.59
2018-08-06T06:00:34.384Z,21.71
2018-08-06T06:05:37.781Z,21.94
2018-08-06T06:10:41.128Z,22.31
2018-08-06T06:15:44.616Z,22.64
2018-08-06T06:20:48.064Z,22.91
2018-08-06T06:25:51.524Z,22.94
2018-08-06T06:30:54.945Z,23.15
2018-08-06T06:35:58.291Z,23.25
2018-08-06T06:41:01.668Z,23.42
2018-08-06T06:46:05.109Z,23.76
2018-08-06T06:51:08.941Z,23.97
2018-08-06T06:56:12.372Z,24.34
2018-08-06T07:01:15.810Z,24.33
2018-08-06T07:06:19.210Z,24.57
2018-08-06T07:11:22.621Z,24.56
2018-08-06T07:16:26.140Z,24.63
2018-08-06T07:21:29.537Z,24.84
2018-08-06T07:26:32.865Z,24.89
2018-08-06T07:31:36.244Z,25.06
2018-08-06T07:36:39.651Z,25.12
2018-08-06T07:41:43.035Z,25.40
2018-08-06T07:46:46.481Z,25.62
2018-08-06T07:51:49.893Z,25.96
2018-08-06T07:56:53.317Z,26.13
2018-08-06T08:01:56.787Z,26.24
2018-08-06T08:07:00.205Z,26.40
2018-08-06T08:12:03.675Z,26.73
2018-08-06T08:17:07.132Z,27.09
2018-08-06T08:22:10.573Z,27.27
2018-08-06T08:27:14.036Z,27.31
2018-08-06T08:32:17.404Z,27.65
2018-08-06T08:37:20.799Z,27.92
2018-08-06T08:42:24.309Z,28.06
2018-08-06T08:47:27.772Z,28.21
2018-08-06T08:52:31.283Z,28.05
2018-08-06T08:57:34.949Z,28.41
2018-08-06T09:02:38.373Z,28.63
2018-08-06T09:07:41.788Z,28.96
2018-08-06T09:12:45.501Z,28.92
2018-08-06T09:17:48.863Z,28.97
2018-08-06T09:22:52.327Z,28.92
2018-08-06T09:27:55.704Z,29.22
2018-08-06T09:32:59.054Z,29.48
2018-08-06T09:38:02.484Z,29.59
2018-08-06T09:43:06.075Z,29.83
2018-08-06T09:48:09.575Z,30.05
2018-08-06T09:53:13.034Z,30.06
2018-08-06T09:58:16.535Z,30.20
2018-08-06T10:03:19.894Z,30.34
2018-08-06T10:08:23.297Z,30.43
2018-08-06T10:13:26.660Z,30.49
2018-08-06T10:18:30.087Z,30.67
2018-08-06T10:23:33.501Z,30.77
2018-08-06T10:28:36.905Z,30.84
2018-08-06T10:33:40.280Z,31.01
2018-08-06T10:38:43.653Z,31.18
2018-08-06T10:43:47.007Z,31.19
2018-08-06T10:48:50.376Z,31.25
2018-08-06T10:53:54.241Z,31.32
2018-08-06T10:58:57.616Z,31.35
2018-08-06T11:04:00.997Z,31.42
2018-08-06T11:09:07.181Z,31.48
2018-08-06T11:14:10.730Z,31.65
2018-08-06T11:19:13.973Z,31.80
2018-08-06T11:24:17.404Z,31.92
2018-08-06T11:29:20.796Z,31.84
2018-08-06T11:34:24.209Z,32.16
2018-08-06T11:39:27.413Z,32.18
2018-08-06T11:44:30.825Z,32.14
2018-08-06T11:49:34.222Z,32.14
2018-08-06T11:54:37.738Z,32.22
2018-08-06T11:59:41.067Z,32.42
2018-08-06T12:04:44.441Z,32.51
2018-08-06T12:09:47.772Z,32.68
2018-08-06T12:14:51.137Z,32.74
2018-08-06T12:19:54.552Z,32.86
2018-08-06T12:24:57.920Z,32.99
2018-08-06T12:30:01.324Z,33.05
2018-08-06T12:35:05.439Z,33.11
2018-08-06T12:40:18.128Z,33.18
2018-08-06T12:45:21.512Z,33.32
2018-08-06T12:50:24.871Z,33.34
2018-08-06T12:55:28.269Z,33.36
2018-08-06T13:00:31.651Z,33.46
2018-08-06T13:05:35.155Z,33.57
2018-08-06T13:10:38.516Z,33.46
2018-08-06T13:15:41.950Z,33.61
2018-08-06T13:20:45.365Z,33.60
2018-08-06T13:25:48.725Z,33.52
2018-08-06T13:30:52.165Z,33.84
2018-08-06T13:35:55.600Z,34.06
2018-08-06T13:40:59.014Z,34.10
2018-08-06T13:46:02.395Z,34.21
2018-08-06T13:51:05.924Z,34.13
2018-08-06T13:56:09.422Z,34.21
2018-08-06T14:01:12.892Z,34.34
2018-08-06T14:06:16.325Z,34.57
2018-08-06T14:11:19.740Z,34.67
2018-08-06T14:16:23.059Z,34.85
2018-08-06T14:21:26.560Z,35.09
2018-08-06T14:26:29.979Z,35.22
2018-08-06T14:31:33.453Z,35.36
2018-08-06T14:36:36.869Z,35.49
2018-08-06T14:41:40.286Z,35.60
2018-08-06T14:46:43.644Z,35.82
2018-08-06T14:51:47.072Z,35.63
2018-08-06T14:56:50.590Z,35.86
2018-08-06T15:01:54.002Z,36.13
2018-08-06T15:06:57.492Z,36.35
2018-08-06T15:12:00.884Z,36.61
2018-08-06T15:17:04.370Z,36.71
2018-08-06T15:22:08.098Z,36.78
2018-08-06T15:27:11.590Z,37.05
2018-08-06T15:32:14.983Z,37.20
2018-08-06T15:37:18.420Z,37.28
2018-08-06T15:42:22.053Z,37.44
2018-08-06T15:47:25.533Z,37.51
2018-08-06T15:52:28.932Z,37.51
2018-08-06T15:57:32.280Z,37.54
2018-08-06T16:02:35.644Z,37.29
2018-08-06T16:07:39.335Z,37.18
2018-08-06T16:12:43.001Z,37.46
2018-08-06T16:17:46.480Z,37.51
2018-08-06T16:22:49.870Z,37.46
2018-08-06T16:27:53.676Z,37.44
2018-08-06T16:32:57.091Z,37.37
2018-08-06T16:38:00.498Z,37.37
2018-08-06T16:43:04.017Z,37.31
2018-08-06T16:48:07.579Z,37.23
2018-08-06T16:53:11.033Z,37.14
2018-08-06T16:58:14.608Z,36.85
2018-08-06T17:03:18.091Z,36.54
2018-08-06T17:08:21.508Z,36.09
2018-08-06T17:13:25.713Z,35.84
2018-08-06T17:18:29.170Z,35.69
2018-08-06T17:23:32.576Z,35.54
2018-08-06T17:28:36.011Z,35.42
2018-08-06T17:33:39.743Z,35.33
2018-08-06T17:38:43.077Z,35.22
2018-08-06T17:43:47.580Z,34.98
2018-08-06T17:48:51.021Z,34.78
2018-08-06T17:53:54.399Z,34.70
2018-08-06T17:58:57.835Z,34.60
2018-08-06T18:04:01.252Z,34.44
2018-08-06T18:09:08.836Z,34.17
2018-08-06T18:14:12.299Z,33.94
2018-08-06T18:19:15.704Z,33.79
2018-08-06T18:24:19.206Z,33.53
2018-08-06T18:29:22.623Z,33.26
2018-08-06T18:34:26.080Z,32.97
2018-08-06T18:39:29.540Z,32.68
2018-08-06T18:44:32.936Z,32.42
2018-08-06T18:49:36.324Z,32.21
2018-08-06T18:54:39.725Z,31.86
2018-08-06T18:59:43.300Z,31.54
2018-08-06T19:04:46.724Z,31.42
2018-08-06T19:09:51.103Z,31.24
2018-08-06T19:14:54.525Z,30.90
2018-08-06T19:19:57.941Z,30.70
2018-08-06T19:25:06.885Z,30.40
2018-08-06T19:30:10.849Z,30.04
2018-08-06T19:35:14.313Z,29.81
2018-08-06T19:40:17.749Z,29.73
2018-08-06T19:45:21.163Z,29.58
2018-08-06T19:50:42.044Z,29.39
2018-08-06T19:55:51.032Z,29.18
2018-08-06T20:00:54.518Z,29.04
2018-08-06T20:05:57.944Z,29.12
2018-08-06T20:11:01.323Z,29.09
2018-08-06T20:16:04.837Z,28.98
2018-08-06T20:21:08.224Z,28.85
2018-08-06T20:26:11.599Z,28.74
2018-08-06T20:31:15.075Z,28.71
2018-08-06T20:36:18.484Z,28.67
2018-08-06T20:41:21.848Z,28.64
2018-08-06T20:46:25.269Z,28.57
2018-08-06T20:51:28.680Z,28.40
2018-08-06T20:56:33.448Z,28.26
2018-08-06T21:01:36.864Z,28.17
2018-08-06T21:06:40.232Z,28.04
2018-08-06T21:11:43.553Z,27.96
2018-08-06T21:16:47.003Z,27.89
2018-08-06T21:21:50.372Z,27.77
2018-08-06T21:26:53.690Z,27.63
2018-08-06T21:31:57.076Z,27.48
2018-08-06T21:37:00.444Z,27.31
2018-08-06T21:42:03.834Z,27.20
2018-08-06T21:47:07.385Z,27.15
2018-08-06T21:52:10.784Z,27.14
2018-08-06T21:57:14.244Z,27.12
2018-08-06T22:02:17.697Z,27.00
2018-08-06T22:07:21.075Z,26.84
2018-08-06T22:12:24.413Z,26.76
2018-08-06T22:17:27.788Z,26.69
2018-08-06T22:22:31.325Z,26.57
2018-08-06T22:27:34.729Z,26.42
2018-08-06T22:32:38.121Z,26.27
2018-08-06T22:37:42.212Z,26.16
2018-08-06T22:42:45.588Z,26.04
2018-08-06T22:47:48.938Z,25.95
2018-08-06T22:52:52.317Z,25.90
2018-08-06T22:57:56.429Z,25.83
2018-08-06T23:02:59.823Z,25.71
2018-08-06T23:08:03.225Z,25.56
2018-08-06T23:13:06.560Z,25.45
2018-08-06T23:18:09.880Z,25.38
2018-08-06T23:23:13.260Z,25.31
2018-08-06T23:28:16.654Z,25.27
2018-08-06T23:33:20.043Z,25.13
2018-08-06T23:38:23.426Z,25.02
2018-08-06T23:43:26.777Z,24.98
2018-08-06T23:48:30.117Z,24.90
2018-08-06T23:53:33.581Z,24.86
2018-08-06T23:58:37.044Z,24.80
